Time;durP1;ratioP1;P1;durP2;ratioP2;P2;SDS_P1;SDS_P2;PMS_P1;PMS_P2;Temp;Humidity;BMP_temperature;BMP_pressure;BME280_temperature;BME280_humidity;BME280_pressure;Samples;Min_cycle;Max_cycle;Signal;HPM_P1;HPM_P2
2022/03/08 00:02:17;;;;;;;10.68;4.68;;;1.40;99.90;;;;;;5038855;28;20366;-66
2022/03/08 00:04:42;;;;;;;12.57;4.68;;;1.40;99.90;;;;;;5045281;28;20045;-67
2022/03/08 00:07:08;;;;;;;9.40;5.07;;;1.40;99.90;;;;;;5040759;28;20274;-67
2022/03/08 00:09:34;;;;;;;8.20;4.40;;;1.40;99.90;;;;;;5037783;28;20039;-67
2022/03/08 00:11:59;;;;;;;12.63;5.53;;;1.30;99.90;;;;;;5040996;28;20041;-67
2022/03/08 00:14:25;;;;;;;9.83;4.50;;;1.30;99.90;;;;;;5037946;28;20141;-68
2022/03/08 00:16:51;;;;;;;11.20;5.10;;;1.30;99.90;;;;;;5047456;28;20040;-67
2022/03/08 00:19:16;;;;;;;8.73;5.10;;;1.30;99.90;;;;;;5043651;28;20116;-67
2022/03/08 00:21:42;;;;;;;11.20;5.37;;;1.30;99.90;;;;;;5034432;28;20703;-67
2022/03/08 00:24:08;;;;;;;9.90;4.23;;;1.30;99.90;;;;;;5038835;28;20458;-67
2022/03/08 00:26:33;;;;;;;9.20;4.60;;;1.20;99.90;;;;;;5041572;28;20466;-67
2022/03/08 00:28:59;;;;;;;7.80;3.40;;;1.20;99.90;;;;;;5046705;28;20036;-67
2022/03/08 00:31:25;;;;;;;9.27;4.87;;;1.20;99.90;;;;;;5047384;28;20033;-67
2022/03/08 00:33:51;;;;;;;7.83;3.87;;;1.20;99.90;;;;;;5039041;28;20045;-68
2022/03/08 00:36:17;;;;;;;10.67;3.87;;;1.20;99.90;;;;;;5045181;28;20044;-68
2022/03/08 00:38:42;;;;;;;8.52;4.22;;;1.10;99.90;;;;;;5034812;28;20032;-67
2022/03/08 00:41:08;;;;;;;9.70;4.37;;;1.10;99.90;;;;;;5040380;28;20086;-67
2022/03/08 00:43:34;;;;;;;11.17;4.67;;;1.00;99.90;;;;;;5041515;28;20041;-68
2022/03/08 00:46:00;;;;;;;8.90;4.33;;;1.00;99.90;;;;;;5036785;28;20091;-67
2022/03/08 00:48:25;;;;;;;9.88;4.80;;;1.00;99.90;;;;;;5043647;28;20126;-67
2022/03/08 00:50:54;;;;;;;10.37;4.43;;;1.00;99.90;;;;;;5040699;28;20045;-67
2022/03/08 00:53:20;;;;;;;8.70;4.50;;;0.90;99.90;;;;;;5041303;28;20064;-68
2022/03/08 00:55:46;;;;;;;9.80;4.60;;;1.00;99.90;;;;;;5039482;28;20076;-68
2022/03/08 00:58:11;;;;;;;7.83;3.80;;;1.00;99.90;;;;;;5042625;28;20044;-68
2022/03/08 01:00:39;;;;;;;11.07;4.90;;;0.90;99.90;;;;;;5035132;28;20228;-67
2022/03/08 01:03:04;;;;;;;11.80;4.60;;;0.90;99.90;;;;;;5037588;28;20120;-67
2022/03/08 01:05:31;;;;;;;8.37;3.53;;;0.90;99.90;;;;;;5022025;28;20554;-67
2022/03/08 01:08:00;;;;;;;9.30;4.47;;;0.80;99.90;;;;;;5044220;28;20040;-67
2022/03/08 01:10:26;;;;;;;13.43;5.03;;;0.80;99.90;;;;;;5023792;28;20106;-67
2022/03/08 01:12:53;;;;;;;10.55;4.07;;;0.90;99.90;;;;;;5034358;28;20044;-68
2022/03/08 01:15:19;;;;;;;9.10;4.35;;;0.80;99.90;;;;;;5042152;28;20051;-68
2022/03/08 01:17:47;;;;;;;11.43;4.82;;;0.80;99.90;;;;;;5043883;28;20051;-67
2022/03/08 01:20:13;;;;;;;11.20;4.97;;;0.80;99.90;;;;;;5038416;28;20037;-67
2022/03/08 01:22:39;;;;;;;8.38;4.28;;;0.80;99.90;;;;;;5036805;28;20480;-68
2022/03/08 01:25:06;;;;;;;10.10;4.50;;;0.80;99.90;;;;;;5044727;28;20201;-67
2022/03/08 01:27:32;;;;;;;9.23;4.65;;;0.80;99.90;;;;;;5039715;28;20076;-68
2022/03/08 01:29:58;;;;;;;8.10;4.60;;;0.80;99.90;;;;;;5038993;28;20073;-68
2022/03/08 01:32:23;;;;;;;9.90;4.40;;;0.80;99.90;;;;;;5044656;28;20106;-68
2022/03/08 01:34:49;;;;;;;11.63;4.53;;;0.80;99.90;;;;;;5038713;28;20064;-68
2022/03/08 01:37:15;;;;;;;8.57;4.10;;;0.80;99.90;;;;;;5034739;28;20091;-68
2022/03/08 01:39:40;;;;;;;10.83;4.50;;;0.80;99.90;;;;;;5031359;28;20049;-69
2022/03/08 01:42:10;;;;;;;12.32;4.50;;;0.70;99.90;;;;;;5041370;28;20075;-68
2022/03/08 01:44:45;;;;;;;9.88;4.47;;;0.80;99.90;;;;;;5038348;28;20033;-68
2022/03/08 01:47:16;;;;;;;9.20;4.28;;;0.70;99.90;;;;;;5035803;28;20041;-68
2022/03/08 01:49:43;;;;;;;10.48;4.60;;;0.80;99.90;;;;;;5038260;28;20432;-68
2022/03/08 01:52:09;;;;;;;9.43;3.92;;;0.80;99.90;;;;;;5037710;28;20474;-68
2022/03/08 01:54:35;;;;;;;11.32;3.95;;;0.80;99.90;;;;;;5035709;28;20498;-68
2022/03/08 01:57:00;;;;;;;14.10;5.33;;;0.80;99.90;;;;;;5040910;28;20040;-69
2022/03/08 01:59:26;;;;;;;9.30;4.03;;;0.70;99.90;;;;;;5037887;28;20036;-68
2022/03/08 02:01:52;;;;;;;8.97;4.23;;;0.70;99.90;;;;;;5038485;28;20037;-68
2022/03/08 02:04:18;;;;;;;9.20;4.57;;;0.70;99.90;;;;;;5040083;28;20044;-69
2022/03/08 02:06:47;;;;;;;9.82;4.55;;;0.70;99.90;;;;;;5041207;28;20033;-68
2022/03/08 02:09:13;;;;;;;9.75;4.93;;;0.70;99.90;;;;;;5042622;28;20045;-69
2022/03/08 02:11:42;;;;;;;8.77;4.35;;;0.60;99.90;;;;;;5036673;28;20379;-68
2022/03/08 02:14:08;;;;;;;12.18;4.82;;;0.60;99.90;;;;;;5039861;28;20041;-69
2022/03/08 02:16:34;;;;;;;11.23;5.13;;;0.60;99.90;;;;;;5044056;28;20098;-68
2022/03/08 02:19:00;;;;;;;10.63;4.80;;;0.60;99.90;;;;;;5039351;28;20412;-68
2022/03/08 02:21:26;;;;;;;8.67;4.40;;;0.60;99.90;;;;;;5041544;28;20098;-69
2022/03/08 02:23:52;;;;;;;10.93;5.88;;;0.60;99.90;;;;;;5041724;28;20041;-68
2022/03/08 02:26:21;;;;;;;9.40;4.43;;;0.60;99.90;;;;;;5041692;28;20488;-68
2022/03/08 02:28:47;;;;;;;9.13;4.65;;;0.60;99.90;;;;;;5042822;28;20040;-68
2022/03/08 02:31:12;;;;;;;8.57;4.60;;;0.60;99.90;;;;;;5037802;28;20033;-68
2022/03/08 02:33:38;;;;;;;8.23;4.20;;;0.50;99.90;;;;;;5043604;28;20083;-68
2022/03/08 02:36:07;;;;;;;9.03;4.47;;;0.50;99.90;;;;;;5043104;28;20506;-68
2022/03/08 02:38:32;;;;;;;10.07;4.35;;;0.50;99.90;;;;;;5018235;28;20433;-67
2022/03/08 02:40:58;;;;;;;16.50;5.07;;;0.50;99.90;;;;;;5034975;28;20041;-68
2022/03/08 02:43:23;;;;;;;9.70;4.83;;;0.50;99.90;;;;;;5036833;28;20513;-68
2022/03/08 02:45:49;;;;;;;11.13;4.60;;;0.40;99.90;;;;;;5032754;28;20102;-68
2022/03/08 02:48:15;;;;;;;8.50;4.07;;;0.40;99.90;;;;;;5038434;28;20072;-68
2022/03/08 02:50:41;;;;;;;12.45;4.80;;;0.40;99.90;;;;;;5034894;28;20501;-69
2022/03/08 02:53:07;;;;;;;10.03;4.50;;;0.40;99.90;;;;;;5043573;28;20130;-68
2022/03/08 02:55:34;;;;;;;8.80;4.43;;;0.40;99.90;;;;;;5041422;28;20033;-68
2022/03/08 02:58:00;;;;;;;12.88;5.43;;;0.30;99.90;;;;;;5038127;28;20386;-68
2022/03/08 03:00:28;;;;;;;15.32;5.35;;;0.30;99.90;;;;;;5041783;28;20033;-68
2022/03/08 03:02:54;;;;;;;10.10;5.28;;;0.30;99.90;;;;;;5042547;28;20478;-69
2022/03/08 03:05:20;;;;;;;10.45;5.13;;;0.30;99.90;;;;;;5040107;28;20091;-69
2022/03/08 03:07:49;;;;;;;11.63;5.10;;;0.30;99.90;;;;;;5038080;28;20486;-68
2022/03/08 03:10:20;;;;;;;13.35;5.72;;;0.20;99.90;;;;;;5031511;28;20124;-68
2022/03/08 03:12:45;;;;;;;12.18;5.30;;;0.20;99.90;;;;;;5039045;28;20411;-67
2022/03/08 03:15:13;;;;;;;10.80;5.63;;;0.20;99.90;;;;;;5035887;28;20052;-68
2022/03/08 03:17:39;;;;;;;12.05;5.72;;;0.20;99.90;;;;;;5039398;28;20498;-68
2022/03/08 03:20:07;;;;;;;12.30;5.47;;;0.20;99.90;;;;;;5043630;28;20033;-68
2022/03/08 03:22:34;;;;;;;11.77;4.65;;;0.20;99.90;;;;;;5045082;28;20075;-68
2022/03/08 03:24:59;;;;;;;;;;;0.10;99.90;;;;;;5046815;28;20045;-68
2022/03/08 03:27:25;;;;;;;10.38;4.68;;;0.10;99.90;;;;;;5038837;28;20087;-68
2022/03/08 03:29:50;;;;;;;13.67;6.57;;;0.10;99.90;;;;;;5044905;28;20083;-68
2022/03/08 03:32:16;;;;;;;11.67;5.63;;;0.10;99.90;;;;;;5048321;28;20033;-68
2022/03/08 03:34:41;;;;;;;13.23;6.63;;;0.10;99.90;;;;;;5043429;28;20143;-68
2022/03/08 03:37:07;;;;;;;15.00;6.27;;;0.10;99.90;;;;;;5041712;28;20037;-68
2022/03/08 03:39:33;;;;;;;11.50;5.30;;;0.10;99.90;;;;;;5041650;28;20048;-68
2022/03/08 03:41:59;;;;;;;10.55;5.68;;;0.10;99.90;;;;;;5045128;28;20147;-67
2022/03/08 03:44:25;;;;;;;14.50;5.67;;;0.00;99.90;;;;;;5043281;28;20331;-69
2022/03/08 03:46:50;;;;;;;14.17;6.13;;;0.00;99.90;;;;;;5048062;28;20047;-68
2022/03/08 03:49:16;;;;;;;12.60;5.80;;;0.10;99.90;;;;;;5043597;28;20498;-68
2022/03/08 03:51:41;;;;;;;13.43;6.23;;;0.00;99.90;;;;;;5037563;28;20620;-68
2022/03/08 03:54:07;;;;;;;12.43;6.03;;;0.00;99.90;;;;;;5043492;28;20807;-68
2022/03/08 03:56:33;;;;;;;13.20;5.67;;;0.00;99.90;;;;;;5036453;28;20036;-68
2022/03/08 03:58:59;;;;;;;11.67;5.83;;;0.00;99.90;;;;;;5034728;28;20053;-72
2022/03/08 04:01:24;;;;;;;15.65;6.82;;;0.00;99.90;;;;;;5038265;28;20069;-67
2022/03/08 04:03:50;;;;;;;15.13;6.00;;;0.00;99.90;;;;;;5039331;28;20525;-68
2022/03/08 04:06:15;;;;;;;12.20;5.77;;;0.00;99.90;;;;;;5039504;28;20390;-68
2022/03/08 04:08:41;;;;;;;12.70;6.53;;;0.00;99.90;;;;;;5047130;28;20580;-68
2022/03/08 04:11:07;;;;;;;14.53;6.30;;;-0.10;99.90;;;;;;5045481;28;20035;-69
2022/03/08 04:13:35;;;;;;;13.40;6.00;;;0.00;99.90;;;;;;5045207;28;20112;-69
2022/03/08 04:16:00;;;;;;;12.00;6.07;;;0.00;99.90;;;;;;5056904;28;20037;-68
2022/03/08 04:18:26;;;;;;;16.40;7.80;;;0.00;99.90;;;;;;5047066;28;20037;-69
2022/03/08 04:20:54;;;;;;;17.70;6.93;;;0.00;99.90;;;;;;5042324;28;20194;-68
2022/03/08 04:23:19;;;;;;;13.63;7.10;;;0.00;99.90;;;;;;5026284;28;20091;-68
2022/03/08 04:25:45;;;;;;;13.93;6.93;;;0.00;99.90;;;;;;5039587;28;20439;-67
2022/03/08 04:28:10;;;;;;;15.70;7.07;;;0.00;99.90;;;;;;5032456;28;20449;-67
2022/03/08 04:30:39;;;;;;;16.17;6.83;;;0.00;99.90;;;;;;5037178;28;20506;-67
2022/03/08 04:33:04;;;;;;;13.88;7.30;;;0.00;99.90;;;;;;5041131;28;20045;-67
2022/03/08 04:35:30;;;;;;;13.23;6.97;;;0.00;99.90;;;;;;5041004;28;20140;-68
2022/03/08 04:37:55;;;;;;;19.17;7.83;;;0.00;99.90;;;;;;5042741;28;20037;-67
2022/03/08 04:40:21;;;;;;;14.43;7.23;;;0.00;99.90;;;;;;5039743;28;20033;-67
2022/03/08 04:42:47;;;;;;;16.03;7.63;;;-0.10;99.90;;;;;;5045683;28;20582;-66
2022/03/08 04:45:13;;;;;;;15.80;7.37;;;-0.10;99.90;;;;;;5045783;28;20485;-67
2022/03/08 04:47:39;;;;;;;15.88;7.00;;;-0.10;99.90;;;;;;5039439;28;20480;-66
2022/03/08 04:50:10;;;;;;;16.77;7.65;;;-0.10;99.90;;;;;;5032670;28;20047;-67
2022/03/08 04:52:36;;;;;;;15.13;7.15;;;-0.10;99.90;;;;;;5040420;28;20485;-67
2022/03/08 04:55:03;;;;;;;14.77;7.40;;;-0.10;99.90;;;;;;5042452;28;20092;-66
2022/03/08 04:57:28;;;;;;;15.60;7.53;;;-0.10;99.90;;;;;;5043916;28;20059;-67
2022/03/08 04:59:54;;;;;;;16.20;8.03;;;0.00;99.90;;;;;;5037652;28;20136;-66
2022/03/08 05:02:20;;;;;;;16.67;8.33;;;-0.10;99.90;;;;;;5048163;28;20425;-67
2022/03/08 05:04:45;;;;;;;19.07;7.97;;;-0.10;99.90;;;;;;5027799;28;20051;-66
2022/03/08 05:07:11;;;;;;;21.53;7.93;;;-0.10;99.90;;;;;;5040557;28;20037;-67
2022/03/08 05:09:36;;;;;;;17.73;8.27;;;-0.10;99.90;;;;;;5037284;28;20052;-66
2022/03/08 05:12:02;;;;;;;19.67;9.07;;;-0.10;99.90;;;;;;5043366;28;20045;-67
2022/03/08 05:14:28;;;;;;;18.42;8.63;;;-0.10;99.90;;;;;;5041099;28;20052;-66
2022/03/08 05:16:54;;;;;;;17.57;8.37;;;-0.10;99.90;;;;;;5046563;28;20402;-66
2022/03/08 05:19:19;;;;;;;16.60;7.73;;;-0.10;99.90;;;;;;5044501;28;20072;-66
2022/03/08 05:21:45;;;;;;;19.50;7.97;;;-0.10;99.90;;;;;;5044047;28;20028;-66
2022/03/08 05:24:10;;;;;;;17.77;8.33;;;-0.10;99.90;;;;;;5046891;28;20060;-67
2022/03/08 05:26:38;;;;;;;15.63;7.60;;;-0.10;99.90;;;;;;5045297;28;20045;-66
2022/03/08 05:29:05;;;;;;;16.25;7.57;;;-0.10;99.90;;;;;;5035704;28;20127;-66
2022/03/08 05:31:32;;;;;;;16.58;8.18;;;-0.10;99.90;;;;;;5037310;28;20056;-67
2022/03/08 05:33:58;;;;;;;15.80;7.78;;;-0.10;99.90;;;;;;5048682;28;20370;-67
2022/03/08 05:36:24;;;;;;;15.57;8.18;;;-0.10;99.90;;;;;;5039306;28;20626;-66
2022/03/08 05:38:50;;;;;;;15.83;8.67;;;-0.10;99.90;;;;;;5040492;28;20075;-66
2022/03/08 05:41:15;;;;;;;16.80;8.80;;;-0.10;99.90;;;;;;5040181;28;20060;-67
2022/03/08 05:43:41;;;;;;;18.37;8.83;;;-0.10;99.90;;;;;;5044937;28;20512;-67
2022/03/08 05:46:07;;;;;;;18.13;8.70;;;-0.10;99.90;;;;;;5032434;28;20041;-67
2022/03/08 05:48:32;;;;;;;21.90;9.27;;;-0.10;99.90;;;;;;5041059;28;20044;-66
2022/03/08 05:50:58;;;;;;;20.00;8.83;;;-0.20;99.90;;;;;;5035383;28;20073;-66
2022/03/08 05:53:24;;;;;;;18.33;9.17;;;-0.10;99.90;;;;;;5043502;28;20037;-66
2022/03/08 05:55:50;;;;;;;15.87;9.13;;;-0.10;99.90;;;;;;5038418;28;20490;-67
2022/03/08 05:58:15;;;;;;;16.93;9.17;;;-0.10;99.90;;;;;;5036018;28;20045;-67
2022/03/08 06:00:41;;;;;;;16.43;7.90;;;-0.10;99.90;;;;;;5043250;28;20065;-66
2022/03/08 06:03:07;;;;;;;18.03;8.30;;;-0.10;99.90;;;;;;5032020;28;20132;-67
2022/03/08 06:05:33;;;;;;;17.60;7.30;;;-0.10;99.90;;;;;;5043726;28;20555;-67
2022/03/08 06:07:58;;;;;;;17.43;8.83;;;-0.10;99.90;;;;;;5041040;28;20575;-67
2022/03/08 06:10:24;;;;;;;16.70;8.53;;;0.00;99.90;;;;;;5040736;28;20276;-67
2022/03/08 06:12:49;;;;;;;20.43;8.83;;;-0.10;99.90;;;;;;5038579;28;20040;-67
2022/03/08 06:15:15;;;;;;;18.30;8.97;;;-0.10;99.90;;;;;;5040809;28;20049;-68
2022/03/08 06:17:41;;;;;;;18.67;8.43;;;-0.10;99.90;;;;;;5035532;28;20049;-68
2022/03/08 06:20:07;;;;;;;22.23;9.00;;;0.00;99.90;;;;;;5028225;28;20497;-69
2022/03/08 06:22:32;;;;;;;18.08;8.63;;;0.00;99.90;;;;;;5036719;28;20072;-71
2022/03/08 06:24:58;;;;;;;13.97;7.30;;;0.00;99.90;;;;;;5037756;28;20084;-70
2022/03/08 06:27:24;;;;;;;18.77;8.30;;;0.00;99.90;;;;;;5040113;28;20340;-71
2022/03/08 06:29:51;;;;;;;19.10;9.07;;;0.00;99.90;;;;;;5040956;28;20045;-72
2022/03/08 06:32:19;;;;;;;19.25;8.90;;;0.00;99.90;;;;;;5035995;28;20099;-67
2022/03/08 06:34:44;;;;;;;16.40;8.70;;;0.00;99.90;;;;;;5042688;28;20033;-69
2022/03/08 06:37:10;;;;;;;15.53;8.23;;;0.00;99.90;;;;;;5039997;28;20048;-71
2022/03/08 06:39:35;;;;;;;16.77;9.27;;;0.10;99.90;;;;;;5041144;28;20052;-67
2022/03/08 06:42:01;;;;;;;14.40;8.20;;;0.10;99.90;;;;;;5040734;28;20457;-69
2022/03/08 06:44:26;;;;;;;16.87;8.23;;;0.20;99.90;;;;;;5037674;28;20151;-68
2022/03/08 06:46:52;;;;;;;17.93;8.50;;;0.20;99.90;;;;;;5040083;28;20401;-68
2022/03/08 06:49:18;;;;;;;16.23;7.73;;;0.20;99.90;;;;;;5039995;28;20037;-67
2022/03/08 06:51:43;;;;;;;17.37;7.77;;;0.20;99.90;;;;;;5037493;28;20219;-69
2022/03/08 06:54:09;;;;;;;14.60;7.83;;;0.20;99.90;;;;;;5031890;28;20068;-68
2022/03/08 06:56:35;;;;;;;14.40;7.63;;;0.30;99.90;;;;;;5041774;28;20459;-68
2022/03/08 06:59:04;;;;;;;18.98;7.53;;;0.30;99.90;;;;;;5040345;28;20497;-68
2022/03/08 07:01:29;;;;;;;16.65;7.75;;;0.40;99.90;;;;;;5042701;28;20029;-68
2022/03/08 07:03:55;;;;;;;16.90;8.07;;;0.40;99.90;;;;;;5041334;28;20435;-69
2022/03/08 07:06:21;;;;;;;18.37;8.50;;;0.50;99.90;;;;;;5039934;28;20036;-68
2022/03/08 07:08:47;;;;;;;16.83;6.80;;;0.50;99.90;;;;;;5041787;28;20373;-69
2022/03/08 07:11:13;;;;;;;13.13;7.23;;;0.50;99.90;;;;;;5044082;28;20158;-68
2022/03/08 07:13:39;;;;;;;15.40;7.47;;;0.60;99.90;;;;;;5035731;28;20044;-68
2022/03/08 07:16:05;;;;;;;18.63;7.83;;;0.70;99.90;;;;;;5037072;28;20025;-68
2022/03/08 07:18:31;;;;;;;18.50;8.00;;;0.70;99.90;;;;;;5027593;28;20068;-68
2022/03/08 07:20:56;;;;;;;19.97;7.20;;;0.80;99.90;;;;;;5042146;28;20118;-68
2022/03/08 07:23:22;;;;;;;15.27;7.53;;;0.80;99.90;;;;;;5043146;28;20036;-68
2022/03/08 07:25:48;;;;;;;13.93;7.60;;;0.80;99.90;;;;;;5043683;28;20060;-68
2022/03/08 07:28:13;;;;;;;15.27;7.27;;;0.90;99.90;;;;;;5034730;28;20291;-68
2022/03/08 07:30:39;;;;;;;16.20;8.17;;;0.90;99.90;;;;;;5039455;28;20072;-68
2022/03/08 07:33:05;;;;;;;11.37;6.57;;;1.00;99.90;;;;;;5032841;28;20045;-69
2022/03/08 07:35:30;;;;;;;13.33;7.00;;;1.10;99.90;;;;;;5031583;28;20128;-68
2022/03/08 07:37:56;;;;;;;17.07;6.97;;;1.20;99.90;;;;;;5037362;28;20037;-68
2022/03/08 07:40:22;;;;;;;14.23;6.73;;;1.20;99.90;;;;;;5046023;28;20037;-68
2022/03/08 07:47:51;;;;;;;11.98;6.32;;;1.50;99.90;;;;;;5051228;28;20095;-69
2022/03/08 07:50:17;;;;;;;15.17;7.40;;;1.50;99.90;;;;;;5054463;28;20085;-70
2022/03/08 07:52:43;;;;;;;11.35;6.07;;;1.60;99.90;;;;;;5034668;28;20055;-70
2022/03/08 07:55:09;;;;;;;11.67;6.33;;;1.70;99.90;;;;;;5042153;28;20040;-69
2022/03/08 07:57:35;;;;;;;15.57;7.97;;;1.70;99.90;;;;;;5039148;28;20053;-69
2022/03/08 08:00:02;;;;;;;12.75;6.70;;;1.80;99.90;;;;;;5047466;28;20385;-69
2022/03/08 08:02:28;;;;;;;14.63;7.28;;;1.90;99.90;;;;;;5047548;28;20370;-69
2022/03/08 08:04:54;;;;;;;12.40;6.57;;;2.00;99.90;;;;;;5035912;28;20029;-69
2022/03/08 08:07:19;;;;;;;16.00;7.32;;;2.10;99.90;;;;;;5016036;28;20055;-69
2022/03/08 08:09:45;;;;;;;13.73;6.73;;;2.20;99.90;;;;;;5031470;28;20049;-69
2022/03/08 08:12:11;;;;;;;15.43;6.13;;;2.20;99.90;;;;;;5049929;28;20111;-69
2022/03/08 08:14:36;;;;;;;13.47;6.40;;;2.30;99.90;;;;;;5014943;28;20033;-69
2022/03/08 08:17:02;;;;;;;12.23;5.90;;;2.40;99.90;;;;;;5032279;28;20094;-69
2022/03/08 08:19:28;;;;;;;11.80;6.03;;;2.50;99.90;;;;;;5031629;28;20444;-69
2022/03/08 08:21:53;;;;;;;11.73;6.87;;;2.60;99.90;;;;;;5031397;28;20060;-69
2022/03/08 08:24:19;;;;;;;13.37;7.13;;;2.70;99.90;;;;;;5031577;28;20098;-69
2022/03/08 08:26:44;;;;;;;14.17;7.47;;;2.80;99.90;;;;;;5048066;28;20086;-70
2022/03/08 08:29:10;;;;;;;14.10;7.50;;;2.80;99.90;;;;;;5050235;28;20125;-69
2022/03/08 08:31:36;;;;;;;12.03;6.57;;;2.90;99.90;;;;;;5027248;28;20041;-69
2022/03/08 08:34:02;;;;;;;11.57;6.15;;;3.00;99.90;;;;;;5031414;28;20107;-69
2022/03/08 08:36:28;;;;;;;11.97;6.63;;;3.10;99.90;;;;;;5031651;28;20036;-69
2022/03/08 08:38:53;;;;;;;16.83;7.47;;;3.20;99.90;;;;;;5048567;28;20037;-69
2022/03/08 08:41:19;;;;;;;15.87;7.20;;;3.30;99.90;;;;;;5046504;28;20444;-69
2022/03/08 08:43:45;;;;;;;14.40;6.23;;;3.30;99.90;;;;;;5036898;28;20066;-69
2022/03/08 08:46:10;;;;;;;12.70;6.87;;;3.50;99.90;;;;;;5031288;28;20040;-69
2022/03/08 08:48:36;;;;;;;12.17;6.70;;;3.60;99.90;;;;;;5032442;28;20037;-69
2022/03/08 08:51:02;;;;;;;13.53;7.13;;;3.60;99.90;;;;;;5029876;28;20048;-69
2022/03/08 08:53:27;;;;;;;13.73;6.53;;;3.70;99.90;;;;;;5031411;28;20048;-69
2022/03/08 08:55:53;;;;;;;14.03;6.70;;;3.80;99.90;;;;;;5029221;28;20036;-69
2022/03/08 08:58:18;;;;;;;12.43;7.13;;;3.90;99.90;;;;;;5052582;28;20047;-69
2022/03/08 09:00:45;;;;;;;12.20;6.73;;;4.00;99.90;;;;;;5051553;28;20056;-69
2022/03/08 09:03:14;;;;;;;12.23;5.38;;;4.10;99.90;;;;;;5047843;28;20174;-69
2022/03/08 09:05:42;;;;;;;11.18;6.25;;;4.20;99.90;;;;;;5032078;28;20148;-69
2022/03/08 09:08:08;;;;;;;11.75;6.60;;;4.30;99.90;;;;;;5033054;28;20040;-69
2022/03/08 09:10:33;;;;;;;8.90;5.87;;;4.40;99.90;;;;;;5030594;28;20051;-69
2022/03/08 09:12:59;;;;;;;11.27;6.13;;;4.50;99.90;;;;;;5029708;28;20045;-70
2022/03/08 09:15:25;;;;;;;7.90;5.03;;;4.60;99.90;;;;;;5030129;28;20037;-69
2022/03/08 09:17:50;;;;;;;10.90;5.20;;;4.70;97.80;;;;;;5028295;28;20059;-69
2022/03/08 09:20:16;;;;;;;9.60;5.03;;;4.90;98.20;;;;;;5028526;28;20486;-69
2022/03/08 09:22:42;;;;;;;9.47;5.30;;;5.00;97.40;;;;;;5028110;28;20037;-70
2022/03/08 09:25:08;;;;;;;8.87;5.23;;;5.10;97.70;;;;;;5035394;28;20124;-69
2022/03/08 09:27:34;;;;;;;12.60;6.43;;;5.20;94.60;;;;;;5033057;28;20048;-69
2022/03/08 09:30:01;;;;;;;10.82;5.38;;;5.30;93.40;;;;;;5050351;28;20037;-69
2022/03/08 09:32:27;;;;;;;9.13;5.18;;;5.40;91.90;;;;;;5030299;28;20132;-69
2022/03/08 09:34:52;;;;;;;9.03;5.73;;;5.50;90.80;;;;;;5051778;28;20437;-70
2022/03/08 09:37:18;;;;;;;10.17;5.17;;;5.70;90.10;;;;;;5027209;28;20131;-70
2022/03/08 09:39:44;;;;;;;8.17;4.80;;;5.80;90.70;;;;;;5057139;28;20097;-70
2022/03/08 09:42:10;;;;;;;10.20;5.80;;;5.90;87.90;;;;;;5044496;28;20064;-69
2022/03/08 09:44:36;;;;;;;13.45;5.80;;;6.00;86.30;;;;;;5040790;28;20106;-69
2022/03/08 09:47:02;;;;;;;11.23;5.68;;;6.10;86.60;;;;;;5041813;28;20036;-70
2022/03/08 09:49:28;;;;;;;8.70;5.13;;;6.20;84.00;;;;;;5030432;28;20084;-69
2022/03/08 09:51:54;;;;;;;10.07;4.83;;;6.40;82.30;;;;;;5030310;28;20099;-69
2022/03/08 09:54:20;;;;;;;9.85;4.88;;;6.40;83.00;;;;;;5028640;28;20052;-69
2022/03/08 09:56:46;;;;;;;9.75;5.40;;;6.50;79.80;;;;;;5054672;28;20048;-70
2022/03/08 09:59:17;;;;;;;10.48;5.00;;;6.60;79.00;;;;;;5027880;28;20324;-70
2022/03/08 10:01:43;;;;;;;10.70;5.97;;;6.80;76.10;;;;;;5027985;28;20033;-69
2022/03/08 10:04:09;;;;;;;;;;;6.90;73.50;;;;;;5028633;28;20119;-69
2022/03/08 10:06:43;;;;;;;8.13;4.68;;;7.00;70.50;;;;;;5030362;28;20106;-69
2022/03/08 10:09:13;;;;;;;9.02;4.82;;;7.10;74.00;;;;;;5047842;28;20100;-70
2022/03/08 10:11:39;;;;;;;6.32;4.30;;;7.20;71.90;;;;;;5028686;28;20395;-70
2022/03/08 10:14:05;;;;;;;9.73;5.25;;;7.40;70.70;;;;;;5055342;28;20075;-70
2022/03/08 10:16:42;;;;;;;9.32;4.95;;;7.50;71.00;;;;;;5031145;28;20132;-69
2022/03/08 10:19:12;;;;;;;9.43;4.47;;;7.60;69.20;;;;;;5028713;28;20350;-69
2022/03/08 10:21:48;;;;;;;8.27;4.93;;;7.80;69.50;;;;;;5010536;28;20221;-69
2022/03/08 10:24:17;;;;;;;6.75;4.45;;;7.90;68.80;;;;;;5045849;28;20087;-70
2022/03/08 10:26:44;;;;;;;8.05;4.70;;;8.00;67.40;;;;;;5031804;28;20465;-69
2022/03/08 10:29:10;;;;;;;7.53;4.65;;;8.10;65.80;;;;;;5023552;28;20037;-69
2022/03/08 10:31:36;;;;;;;7.13;4.40;;;8.30;64.70;;;;;;5032728;28;20044;-69
2022/03/08 10:34:09;;;;;;;8.77;4.00;;;8.40;64.50;;;;;;5055130;28;20040;-70
2022/03/08 10:36:36;;;;;;;8.30;4.80;;;8.50;65.20;;;;;;5032321;28;20116;-70
2022/03/08 10:39:10;;;;;;;7.95;4.47;;;8.60;64.00;;;;;;5031483;28;20127;-70
2022/03/08 10:41:54;;;;;;;8.23;4.90;;;8.70;63.60;;;;;;5019819;28;20192;-69
2022/03/08 10:44:37;;;;;;;10.75;4.32;;;8.90;61.00;;;;;;5045514;28;20037;-70
2022/03/08 10:47:11;;;;;;;9.85;4.68;;;8.90;60.40;;;;;;5033565;28;20044;-70
2022/03/08 10:49:48;;;;;;;7.15;4.47;;;9.10;59.80;;;;;;5018815;28;20037;-70
2022/03/08 10:52:13;;;;;;;6.85;4.18;;;9.10;59.20;;;;;;5030008;28;20060;-70
2022/03/08 10:54:39;;;;;;;10.47;4.40;;;9.20;60.30;;;;;;5053491;28;20461;-70
2022/03/08 10:57:04;;;;;;;6.83;4.33;;;9.30;59.60;;;;;;5028043;28;20048;-69
2022/03/08 10:59:30;;;;;;;8.27;4.57;;;9.50;59.20;;;;;;5051189;28;20216;-70
2022/03/08 11:01:56;;;;;;;8.37;4.40;;;9.60;57.90;;;;;;5046945;28;20048;-69
2022/03/08 11:04:23;;;;;;;8.80;4.53;;;9.60;57.70;;;;;;5047195;28;20470;-70
2022/03/08 11:06:53;;;;;;;6.85;3.47;;;9.70;58.20;;;;;;5028107;28;20485;-69
2022/03/08 11:09:19;;;;;;;7.10;4.18;;;9.80;57.50;;;;;;5046918;28;20111;-70
2022/03/08 11:11:45;;;;;;;7.38;4.18;;;9.90;57.40;;;;;;5035858;28;20469;-69
2022/03/08 11:14:11;;;;;;;6.17;3.83;;;9.90;57.00;;;;;;5028497;28;20124;-69
2022/03/08 11:16:39;;;;;;;6.38;3.88;;;10.00;55.60;;;;;;5029078;28;20037;-70
2022/03/08 11:19:05;;;;;;;9.35;4.10;;;10.10;56.00;;;;;;5051025;28;20506;-70
2022/03/08 11:21:33;;;;;;;6.78;4.00;;;10.20;54.70;;;;;;5046510;28;20060;-70
2022/03/08 11:24:02;;;;;;;10.02;4.13;;;10.20;56.30;;;;;;5027817;28;20059;-69
2022/03/08 11:26:29;;;;;;;6.55;4.07;;;10.40;54.80;;;;;;5029451;28;20033;-70
2022/03/08 11:28:54;;;;;;;;;;;10.50;55.30;;;;;;5037123;28;20080;-70
2022/03/08 11:31:25;;;;;;;6.55;3.88;;;10.50;52.20;;;;;;5030060;28;19952;-70
2022/03/08 11:34:14;;;;;;;6.57;3.72;;;10.60;54.10;;;;;;5032750;28;20037;-70
2022/03/08 11:36:52;;;;;;;8.10;4.80;;;10.60;51.70;;;;;;5015736;28;20040;-70
2022/03/08 11:39:21;;;;;;;7.40;4.18;;;10.60;52.70;;;;;;5033252;28;20091;-70
2022/03/08 11:41:50;;;;;;;6.25;4.03;;;10.60;53.00;;;;;;5031525;28;20138;-70
2022/03/08 11:44:27;;;;;;;7.65;4.10;;;10.70;53.30;;;;;;5033260;28;20094;-69
2022/03/08 11:47:09;;;;;;;6.47;4.03;;;10.70;52.80;;;;;;5044382;28;20059;-70
2022/03/08 11:49:38;;;;;;;8.90;3.97;;;10.80;51.10;;;;;;5039445;28;20055;-69
2022/03/08 11:52:19;;;;;;;6.70;4.43;;;10.80;52.10;;;;;;5031899;28;20382;-69
2022/03/08 11:54:53;;;;;;;8.93;3.63;;;10.90;52.30;;;;;;5030755;28;20397;-70
2022/03/08 11:57:47;;;;;;;9.25;4.30;;;10.90;52.30;;;;;;5033405;28;20443;-69
2022/03/08 12:00:32;;;;;;;5.65;3.70;;;11.10;50.90;;;;;;5030278;28;20124;-69
2022/03/08 12:03:07;;;;;;;6.65;3.97;;;11.20;50.70;;;;;;5030362;28;20680;-69
2022/03/08 12:05:57;;;;;;;5.80;3.65;;;11.20;50.60;;;;;;5040124;28;20123;-69
2022/03/08 12:08:29;;;;;;;5.43;3.72;;;11.30;50.80;;;;;;5020609;28;20043;-69
2022/03/08 12:11:24;;;;;;;7.35;3.60;;;11.40;50.90;;;;;;5030215;28;20621;-69
2022/03/08 12:13:59;;;;;;;6.28;3.92;;;11.50;51.50;;;;;;4988852;28;20054;-69
2022/03/08 12:16:26;;;;;;;10.10;4.15;;;11.60;50.30;;;;;;5051670;28;20067;-68
2022/03/08 12:18:54;;;;;;;6.10;3.88;;;11.60;49.60;;;;;;5033489;28;20037;-68
2022/03/08 12:21:23;;;;;;;7.28;4.05;;;11.70;50.00;;;;;;5036815;28;20501;-69
2022/03/08 12:23:51;;;;;;;5.72;3.22;;;11.70;50.00;;;;;;5033600;28;20041;-69
2022/03/08 12:26:43;;;;;;;6.78;3.92;;;11.90;50.00;;;;;;5031932;28;20072;-69
2022/03/08 12:29:25;;;;;;;5.90;3.60;;;12.00;49.60;;;;;;5020212;28;20107;-69
2022/03/08 12:32:05;;;;;;;7.53;3.80;;;12.10;48.30;;;;;;5029673;28;20429;-69
2022/03/08 12:34:38;;;;;;;7.45;3.42;;;12.20;48.50;;;;;;5030037;28;20056;-69
2022/03/08 12:37:05;;;;;;;9.07;3.20;;;12.20;49.10;;;;;;5031126;28;20153;-69
2022/03/08 12:39:48;;;;;;;;;;;12.20;47.90;;;;;;5036106;28;20049;-69
2022/03/08 12:42:18;;;;;;;5.90;3.80;;;12.20;46.90;;;;;;5044034;28;20044;-69
2022/03/08 12:44:54;;;;;;;6.53;3.38;;;12.20;47.50;;;;;;5030398;28;20184;-69
2022/03/08 12:47:20;;;;;;;5.97;3.78;;;12.30;47.60;;;;;;5023345;28;20098;-69
2022/03/08 12:49:46;;;;;;;4.85;3.30;;;12.40;48.00;;;;;;5044425;28;20125;-69
2022/03/08 12:52:13;;;;;;;5.80;2.90;;;12.40;47.70;;;;;;5029064;28;20055;-69
2022/03/08 12:54:41;;;;;;;5.38;3.53;;;12.50;47.20;;;;;;5030633;28;20041;-69